sensor_id;sensor_type;location;lat;lon;timestamp;temperature;humidity
55313;DHT22;46892;45.668;11.756;2022-11-20T00:03:36;8.70;77.20
55313;DHT22;46892;45.668;11.756;2022-11-20T00:06:03;8.70;76.70
55313;DHT22;46892;45.668;11.756;2022-11-20T00:08:30;8.70;75.90
55313;DHT22;46892;45.668;11.756;2022-11-20T00:10:55;8.80;75.90
55313;DHT22;46892;45.668;11.756;2022-11-20T00:13:21;8.60;76.40
55313;DHT22;46892;45.668;11.756;2022-11-20T00:15:47;8.60;76.30
55313;DHT22;46892;45.668;11.756;2022-11-20T00:18:12;8.70;76.10
55313;DHT22;46892;45.668;11.756;2022-11-20T00:20:38;8.50;76.60
55313;DHT22;46892;45.668;11.756;2022-11-20T00:23:04;8.40;77.50
55313;DHT22;46892;45.668;11.756;2022-11-20T00:25:31;8.40;77.50
55313;DHT22;46892;45.668;11.756;2022-11-20T00:27:58;8.50;77.00
55313;DHT22;46892;45.668;11.756;2022-11-20T00:30:24;8.50;77.50
55313;DHT22;46892;45.668;11.756;2022-11-20T00:32:50;8.50;77.50
55313;DHT22;46892;45.668;11.756;2022-11-20T00:35:15;8.60;77.10
55313;DHT22;46892;45.668;11.756;2022-11-20T00:37:41;8.60;76.80
55313;DHT22;46892;45.668;11.756;2022-11-20T00:40:07;8.30;77.30
55313;DHT22;46892;45.668;11.756;2022-11-20T00:42:33;8.30;78.50
55313;DHT22;46892;45.668;11.756;2022-11-20T00:44:59;8.30;78.50
55313;DHT22;46892;45.668;11.756;2022-11-20T00:47:24;8.10;78.10
55313;DHT22;46892;45.668;11.756;2022-11-20T00:49:50;8.00;78.40
55313;DHT22;46892;45.668;11.756;2022-11-20T00:52:16;8.00;79.40
55313;DHT22;46892;45.668;11.756;2022-11-20T00:54:41;8.10;79.90
55313;DHT22;46892;45.668;11.756;2022-11-20T00:57:07;8.10;79.20
55313;DHT22;46892;45.668;11.756;2022-11-20T00:59:32;8.20;78.20
55313;DHT22;46892;45.668;11.756;2022-11-20T01:01:58;8.20;78.10
55313;DHT22;46892;45.668;11.756;2022-11-20T01:04:24;8.30;77.70
55313;DHT22;46892;45.668;11.756;2022-11-20T01:06:49;8.30;77.50
55313;DHT22;46892;45.668;11.756;2022-11-20T01:09:15;8.30;77.30
55313;DHT22;46892;45.668;11.756;2022-11-20T01:11:42;8.30;78.70
55313;DHT22;46892;45.668;11.756;2022-11-20T01:14:17;8.20;77.60
55313;DHT22;46892;45.668;11.756;2022-11-20T01:16:48;8.20;77.60
55313;DHT22;46892;45.668;11.756;2022-11-20T01:19:17;8.20;77.90
55313;DHT22;46892;45.668;11.756;2022-11-20T01:21:44;8.20;78.00
55313;DHT22;46892;45.668;11.756;2022-11-20T01:24:14;8.10;78.30
55313;DHT22;46892;45.668;11.756;2022-11-20T01:26:42;8.00;78.80
55313;DHT22;46892;45.668;11.756;2022-11-20T01:29:13;7.90;79.50
55313;DHT22;46892;45.668;11.756;2022-11-20T01:31:40;8.00;80.00
55313;DHT22;46892;45.668;11.756;2022-11-20T01:34:11;8.00;79.30
55313;DHT22;46892;45.668;11.756;2022-11-20T01:36:38;7.70;78.10
55313;DHT22;46892;45.668;11.756;2022-11-20T01:39:07;7.70;78.60
55313;DHT22;46892;45.668;11.756;2022-11-20T01:41:34;7.60;79.00
55313;DHT22;46892;45.668;11.756;2022-11-20T01:44:22;7.50;79.40
55313;DHT22;46892;45.668;11.756;2022-11-20T01:47:00;7.40;79.60
55313;DHT22;46892;45.668;11.756;2022-11-20T01:49:34;7.30;79.70
55313;DHT22;46892;45.668;11.756;2022-11-20T01:52:05;7.10;79.80
55313;DHT22;46892;45.668;11.756;2022-11-20T01:57:30;6.80;80.70
55313;DHT22;46892;45.668;11.756;2022-11-20T02:00:06;6.80;81.60
55313;DHT22;46892;45.668;11.756;2022-11-20T02:02:32;6.60;81.70
55313;DHT22;46892;45.668;11.756;2022-11-20T02:05:02;6.60;82.10
55313;DHT22;46892;45.668;11.756;2022-11-20T02:07:30;6.70;82.50
55313;DHT22;46892;45.668;11.756;2022-11-20T02:09:56;6.80;81.10
55313;DHT22;46892;45.668;11.756;2022-11-20T02:12:21;6.80;81.30
55313;DHT22;46892;45.668;11.756;2022-11-20T02:15:06;6.80;81.70
55313;DHT22;46892;45.668;11.756;2022-11-20T02:17:31;6.80;81.50
55313;DHT22;46892;45.668;11.756;2022-11-20T02:19:57;6.80;81.80
55313;DHT22;46892;45.668;11.756;2022-11-20T02:22:35;6.80;81.30
55313;DHT22;46892;45.668;11.756;2022-11-20T02:25:03;6.80;81.10
55313;DHT22;46892;45.668;11.756;2022-11-20T02:27:30;6.80;81.30
55313;DHT22;46892;45.668;11.756;2022-11-20T02:30:05;6.80;82.10
55313;DHT22;46892;45.668;11.756;2022-11-20T02:32:35;6.70;81.10
55313;DHT22;46892;45.668;11.756;2022-11-20T02:35:09;6.70;80.80
55313;DHT22;46892;45.668;11.756;2022-11-20T02:37:38;6.60;82.10
55313;DHT22;46892;45.668;11.756;2022-11-20T02:40:04;6.60;81.20
55313;DHT22;46892;45.668;11.756;2022-11-20T02:42:30;6.50;82.00
55313;DHT22;46892;45.668;11.756;2022-11-20T02:44:56;6.50;81.60
55313;DHT22;46892;45.668;11.756;2022-11-20T02:47:21;6.50;81.00
55313;DHT22;46892;45.668;11.756;2022-11-20T02:49:47;6.40;80.60
55313;DHT22;46892;45.668;11.756;2022-11-20T02:52:13;6.40;81.70
55313;DHT22;46892;45.668;11.756;2022-11-20T02:54:38;6.30;81.30
55313;DHT22;46892;45.668;11.756;2022-11-20T02:57:04;6.00;81.10
55313;DHT22;46892;45.668;11.756;2022-11-20T02:59:29;6.00;81.70
55313;DHT22;46892;45.668;11.756;2022-11-20T03:01:55;6.00;81.90
55313;DHT22;46892;45.668;11.756;2022-11-20T03:04:21;6.10;82.30
55313;DHT22;46892;45.668;11.756;2022-11-20T03:06:46;6.10;81.70
55313;DHT22;46892;45.668;11.756;2022-11-20T03:09:12;6.00;81.10
55313;DHT22;46892;45.668;11.756;2022-11-20T03:11:38;6.20;81.40
55313;DHT22;46892;45.668;11.756;2022-11-20T03:14:04;6.10;82.10
55313;DHT22;46892;45.668;11.756;2022-11-20T03:16:31;5.80;82.20
55313;DHT22;46892;45.668;11.756;2022-11-20T03:18:57;5.80;83.30
55313;DHT22;46892;45.668;11.756;2022-11-20T03:21:23;5.80;83.80
55313;DHT22;46892;45.668;11.756;2022-11-20T03:23:49;5.80;82.90
55313;DHT22;46892;45.668;11.756;2022-11-20T03:26:23;5.80;82.60
55313;DHT22;46892;45.668;11.756;2022-11-20T03:28:52;5.80;82.70
55313;DHT22;46892;45.668;11.756;2022-11-20T03:31:21;5.80;83.10
55313;DHT22;46892;45.668;11.756;2022-11-20T03:33:47;5.90;81.50
55313;DHT22;46892;45.668;11.756;2022-11-20T03:36:14;6.00;81.90
55313;DHT22;46892;45.668;11.756;2022-11-20T03:38:40;5.90;82.40
55313;DHT22;46892;45.668;11.756;2022-11-20T03:41:12;6.00;82.40
55313;DHT22;46892;45.668;11.756;2022-11-20T03:43:39;6.10;82.10
55313;DHT22;46892;45.668;11.756;2022-11-20T03:46:05;6.20;81.70
55313;DHT22;46892;45.668;11.756;2022-11-20T03:48:31;6.30;81.50
55313;DHT22;46892;45.668;11.756;2022-11-20T03:51:27;6.30;81.20
55313;DHT22;46892;45.668;11.756;2022-11-20T03:53:55;6.30;81.50
55313;DHT22;46892;45.668;11.756;2022-11-20T03:56:29;6.30;81.30
55313;DHT22;46892;45.668;11.756;2022-11-20T03:58:56;6.10;81.10
55313;DHT22;46892;45.668;11.756;2022-11-20T04:01:27;6.00;81.80
55313;DHT22;46892;45.668;11.756;2022-11-20T04:03:54;6.10;82.30
55313;DHT22;46892;45.668;11.756;2022-11-20T04:06:28;6.20;82.40
55313;DHT22;46892;45.668;11.756;2022-11-20T04:08:56;6.30;81.20
55313;DHT22;46892;45.668;11.756;2022-11-20T04:11:26;6.30;81.10
55313;DHT22;46892;45.668;11.756;2022-11-20T04:13:54;6.30;81.30
55313;DHT22;46892;45.668;11.756;2022-11-20T04:16:21;6.20;80.90
55313;DHT22;46892;45.668;11.756;2022-11-20T04:18:50;6.20;81.10
55313;DHT22;46892;45.668;11.756;2022-11-20T04:21:16;6.20;80.20
55313;DHT22;46892;45.668;11.756;2022-11-20T04:23:42;6.10;80.30
55313;DHT22;46892;45.668;11.756;2022-11-20T04:26:10;6.20;81.40
55313;DHT22;46892;45.668;11.756;2022-11-20T04:28:37;6.20;80.90
55313;DHT22;46892;45.668;11.756;2022-11-20T04:33:29;6.30;80.70
55313;DHT22;46892;45.668;11.756;2022-11-20T04:36:00;6.20;80.10
55313;DHT22;46892;45.668;11.756;2022-11-20T04:38:26;6.20;79.90
55313;DHT22;46892;45.668;11.756;2022-11-20T04:40:58;6.00;80.70
55313;DHT22;46892;45.668;11.756;2022-11-20T04:43:23;6.10;80.30
55313;DHT22;46892;45.668;11.756;2022-11-20T04:45:54;5.90;81.00
55313;DHT22;46892;45.668;11.756;2022-11-20T04:48:20;6.00;80.80
55313;DHT22;46892;45.668;11.756;2022-11-20T04:50:45;5.90;81.10
55313;DHT22;46892;45.668;11.756;2022-11-20T04:53:11;6.00;81.10
55313;DHT22;46892;45.668;11.756;2022-11-20T04:55:37;5.90;80.40
55313;DHT22;46892;45.668;11.756;2022-11-20T04:58:02;5.90;80.50
55313;DHT22;46892;45.668;11.756;2022-11-20T05:00:28;5.90;81.40
55313;DHT22;46892;45.668;11.756;2022-11-20T05:02:54;5.80;80.70
55313;DHT22;46892;45.668;11.756;2022-11-20T05:05:19;5.80;81.00
55313;DHT22;46892;45.668;11.756;2022-11-20T05:07:45;5.80;81.00
55313;DHT22;46892;45.668;11.756;2022-11-20T05:10:11;5.80;81.00
55313;DHT22;46892;45.668;11.756;2022-11-20T05:12:36;5.80;81.60
55313;DHT22;46892;45.668;11.756;2022-11-20T05:15:02;5.80;80.50
55313;DHT22;46892;45.668;11.756;2022-11-20T05:17:28;5.80;80.80
55313;DHT22;46892;45.668;11.756;2022-11-20T05:19:53;5.70;81.20
55313;DHT22;46892;45.668;11.756;2022-11-20T05:22:19;5.80;80.70
55313;DHT22;46892;45.668;11.756;2022-11-20T05:24:45;5.70;80.60
55313;DHT22;46892;45.668;11.756;2022-11-20T05:27:10;5.80;81.00
55313;DHT22;46892;45.668;11.756;2022-11-20T05:29:36;5.80;79.60
55313;DHT22;46892;45.668;11.756;2022-11-20T05:32:01;5.80;79.80
55313;DHT22;46892;45.668;11.756;2022-11-20T05:34:27;5.80;78.80
55313;DHT22;46892;45.668;11.756;2022-11-20T05:36:53;5.80;78.50
55313;DHT22;46892;45.668;11.756;2022-11-20T05:39:18;5.80;78.40
55313;DHT22;46892;45.668;11.756;2022-11-20T05:41:44;5.90;79.70
55313;DHT22;46892;45.668;11.756;2022-11-20T05:44:11;5.90;80.00
55313;DHT22;46892;45.668;11.756;2022-11-20T05:46:37;5.90;79.20
55313;DHT22;46892;45.668;11.756;2022-11-20T05:49:02;5.90;79.60
55313;DHT22;46892;45.668;11.756;2022-11-20T05:51:28;5.90;78.30
55313;DHT22;46892;45.668;11.756;2022-11-20T05:53:56;5.90;77.50
55313;DHT22;46892;45.668;11.756;2022-11-20T05:56:22;5.80;77.80
55313;DHT22;46892;45.668;11.756;2022-11-20T05:58:48;5.80;79.00
55313;DHT22;46892;45.668;11.756;2022-11-20T06:01:23;5.60;79.60
55313;DHT22;46892;45.668;11.756;2022-11-20T06:03:49;5.60;80.30
55313;DHT22;46892;45.668;11.756;2022-11-20T06:06:16;5.70;79.90
55313;DHT22;46892;45.668;11.756;2022-11-20T06:08:43;5.70;78.50
55313;DHT22;46892;45.668;11.756;2022-11-20T06:11:10;5.70;78.10
55313;DHT22;46892;45.668;11.756;2022-11-20T06:13:36;5.50;78.90
55313;DHT22;46892;45.668;11.756;2022-11-20T06:16:03;5.40;80.50
55313;DHT22;46892;45.668;11.756;2022-11-20T06:18:29;5.40;80.80
55313;DHT22;46892;45.668;11.756;2022-11-20T06:23:32;5.50;78.70
55313;DHT22;46892;45.668;11.756;2022-11-20T06:26:02;5.40;78.60
55313;DHT22;46892;45.668;11.756;2022-11-20T06:28:28;5.30;78.90
55313;DHT22;46892;45.668;11.756;2022-11-20T06:30:53;5.20;79.10
55313;DHT22;46892;45.668;11.756;2022-11-20T06:33:19;5.20;79.20
55313;DHT22;46892;45.668;11.756;2022-11-20T06:35:45;5.10;81.10
55313;DHT22;46892;45.668;11.756;2022-11-20T06:38:10;5.20;80.80
55313;DHT22;46892;45.668;11.756;2022-11-20T06:40:36;5.20;80.10
55313;DHT22;46892;45.668;11.756;2022-11-20T06:43:04;5.30;79.30
55313;DHT22;46892;45.668;11.756;2022-11-20T06:45:30;5.30;79.20
55313;DHT22;46892;45.668;11.756;2022-11-20T06:47:57;5.30;79.00
55313;DHT22;46892;45.668;11.756;2022-11-20T06:50:24;5.30;79.10
55313;DHT22;46892;45.668;11.756;2022-11-20T06:52:49;5.30;79.40
55313;DHT22;46892;45.668;11.756;2022-11-20T06:55:15;5.30;80.70
55313;DHT22;46892;45.668;11.756;2022-11-20T06:57:41;5.40;80.50
55313;DHT22;46892;45.668;11.756;2022-11-20T07:00:07;5.60;80.90
55313;DHT22;46892;45.668;11.756;2022-11-20T07:02:33;5.70;79.70
55313;DHT22;46892;45.668;11.756;2022-11-20T07:04:58;5.80;78.80
55313;DHT22;46892;45.668;11.756;2022-11-20T07:07:24;5.90;78.90
55313;DHT22;46892;45.668;11.756;2022-11-20T07:09:49;6.20;80.40
55313;DHT22;46892;45.668;11.756;2022-11-20T07:12:15;6.70;79.10
55313;DHT22;46892;45.668;11.756;2022-11-20T07:14:41;7.00;78.20
55313;DHT22;46892;45.668;11.756;2022-11-20T07:17:07;7.30;77.60
55313;DHT22;46892;45.668;11.756;2022-11-20T07:19:32;7.50;76.90
55313;DHT22;46892;45.668;11.756;2022-11-20T07:21:58;7.50;74.90
55313;DHT22;46892;45.668;11.756;2022-11-20T07:24:24;7.30;75.20
55313;DHT22;46892;45.668;11.756;2022-11-20T07:26:49;7.20;75.50
55313;DHT22;46892;45.668;11.756;2022-11-20T07:29:15;7.10;77.80
55313;DHT22;46892;45.668;11.756;2022-11-20T07:31:42;7.00;77.70
55313;DHT22;46892;45.668;11.756;2022-11-20T07:34:08;7.00;78.80
55313;DHT22;46892;45.668;11.756;2022-11-20T07:36:34;7.20;78.80
55313;DHT22;46892;45.668;11.756;2022-11-20T07:39:00;7.50;78.50
55313;DHT22;46892;45.668;11.756;2022-11-20T07:41:25;7.90;77.70
55313;DHT22;46892;45.668;11.756;2022-11-20T07:43:51;8.30;77.00
55313;DHT22;46892;45.668;11.756;2022-11-20T07:46:17;8.40;76.40
55313;DHT22;46892;45.668;11.756;2022-11-20T07:48:42;8.60;75.60
55313;DHT22;46892;45.668;11.756;2022-11-20T07:51:08;8.90;75.20
55313;DHT22;46892;45.668;11.756;2022-11-20T07:53:34;9.00;72.90
55313;DHT22;46892;45.668;11.756;2022-11-20T07:56:00;9.00;72.50
55313;DHT22;46892;45.668;11.756;2022-11-20T07:58:28;8.90;74.60
55313;DHT22;46892;45.668;11.756;2022-11-20T08:00:54;9.20;75.20
55313;DHT22;46892;45.668;11.756;2022-11-20T08:03:19;9.40;74.50
55313;DHT22;46892;45.668;11.756;2022-11-20T08:05:45;9.60;74.90
55313;DHT22;46892;45.668;11.756;2022-11-20T08:08:11;10.00;73.90
55313;DHT22;46892;45.668;11.756;2022-11-20T08:10:37;10.30;74.20
55313;DHT22;46892;45.668;11.756;2022-11-20T08:13:03;10.50;74.00
55313;DHT22;46892;45.668;11.756;2022-11-20T08:16:07;10.60;72.70
55313;DHT22;46892;45.668;11.756;2022-11-20T08:18:33;10.80;72.80
55313;DHT22;46892;45.668;11.756;2022-11-20T08:21:02;11.00;71.80
55313;DHT22;46892;45.668;11.756;2022-11-20T08:23:28;11.10;71.00
55313;DHT22;46892;45.668;11.756;2022-11-20T08:25:54;11.20;71.70
55313;DHT22;46892;45.668;11.756;2022-11-20T08:28:20;11.20;70.60
55313;DHT22;46892;45.668;11.756;2022-11-20T08:30:46;11.30;72.50
55313;DHT22;46892;45.668;11.756;2022-11-20T08:33:11;11.40;72.40
55313;DHT22;46892;45.668;11.756;2022-11-20T08:35:37;11.30;69.40
55313;DHT22;46892;45.668;11.756;2022-11-20T08:38:06;11.10;71.90
55313;DHT22;46892;45.668;11.756;2022-11-20T08:40:33;11.10;74.60
55313;DHT22;46892;45.668;11.756;2022-11-20T08:42:59;11.20;73.70
55313;DHT22;46892;45.668;11.756;2022-11-20T08:45:24;11.30;74.90
55313;DHT22;46892;45.668;11.756;2022-11-20T08:47:50;11.40;71.70
55313;DHT22;46892;45.668;11.756;2022-11-20T08:50:16;11.60;74.40
55313;DHT22;46892;45.668;11.756;2022-11-20T08:52:42;11.50;69.90
55313;DHT22;46892;45.668;11.756;2022-11-20T08:55:10;11.50;73.40
55313;DHT22;46892;45.668;11.756;2022-11-20T08:57:37;11.70;73.70
55313;DHT22;46892;45.668;11.756;2022-11-20T09:00:05;11.70;74.20
55313;DHT22;46892;45.668;11.756;2022-11-20T09:02:31;11.80;73.80
55313;DHT22;46892;45.668;11.756;2022-11-20T09:04:57;11.90;71.50
55313;DHT22;46892;45.668;11.756;2022-11-20T09:07:23;11.90;67.20
55313;DHT22;46892;45.668;11.756;2022-11-20T09:09:49;11.80;66.70
55313;DHT22;46892;45.668;11.756;2022-11-20T09:12:15;11.70;66.50
55313;DHT22;46892;45.668;11.756;2022-11-20T09:14:41;11.60;73.60
55313;DHT22;46892;45.668;11.756;2022-11-20T09:17:06;11.70;72.30
55313;DHT22;46892;45.668;11.756;2022-11-20T09:19:33;11.60;69.20
55313;DHT22;46892;45.668;11.756;2022-11-20T09:21:59;11.50;67.90
55313;DHT22;46892;45.668;11.756;2022-11-20T09:24:26;11.50;68.60
55313;DHT22;46892;45.668;11.756;2022-11-20T09:26:51;11.50;68.60
55313;DHT22;46892;45.668;11.756;2022-11-20T09:29:17;11.50;68.60
55313;DHT22;46892;45.668;11.756;2022-11-20T09:31:43;11.50;69.50
55313;DHT22;46892;45.668;11.756;2022-11-20T09:34:09;11.50;70.10
55313;DHT22;46892;45.668;11.756;2022-11-20T09:36:35;11.40;73.20
55313;DHT22;46892;45.668;11.756;2022-11-20T09:39:01;11.40;72.00
55313;DHT22;46892;45.668;11.756;2022-11-20T09:41:41;11.40;72.60
55313;DHT22;46892;45.668;11.756;2022-11-20T09:54:44;11.60;71.50
55313;DHT22;46892;45.668;11.756;2022-11-20T09:57:12;11.60;74.10
55313;DHT22;46892;45.668;11.756;2022-11-20T09:59:44;11.70;74.60
55313;DHT22;46892;45.668;11.756;2022-11-20T10:04:55;11.70;72.80
55313;DHT22;46892;45.668;11.756;2022-11-20T10:07:54;11.70;71.40
55313;DHT22;46892;45.668;11.756;2022-11-20T10:10:43;11.70;71.70
55313;DHT22;46892;45.668;11.756;2022-11-20T10:13:19;11.70;69.70
55313;DHT22;46892;45.668;11.756;2022-11-20T10:24:44;11.80;73.70
55313;DHT22;46892;45.668;11.756;2022-11-20T10:30:21;11.80;72.80
55313;DHT22;46892;45.668;11.756;2022-11-20T10:33:00;11.90;73.40
55313;DHT22;46892;45.668;11.756;2022-11-20T10:35:35;12.00;72.70
55313;DHT22;46892;45.668;11.756;2022-11-20T10:38:09;12.00;73.00
55313;DHT22;46892;45.668;11.756;2022-11-20T13:29:03;13.00;60.80
55313;DHT22;46892;45.668;11.756;2022-11-20T13:31:33;13.00;63.10
55313;DHT22;46892;45.668;11.756;2022-11-20T13:34:02;13.00;64.50
55313;DHT22;46892;45.668;11.756;2022-11-20T13:36:29;13.00;63.70
55313;DHT22;46892;45.668;11.756;2022-11-20T13:38:56;13.10;63.70
55313;DHT22;46892;45.668;11.756;2022-11-20T13:41:29;13.10;63.50
55313;DHT22;46892;45.668;11.756;2022-11-20T13:46:51;12.90;62.70
55313;DHT22;46892;45.668;11.756;2022-11-20T13:49:26;12.90;63.50
55313;DHT22;46892;45.668;11.756;2022-11-20T13:52:04;12.90;62.60
55313;DHT22;46892;45.668;11.756;2022-11-20T13:54:47;12.80;60.40
55313;DHT22;46892;45.668;11.756;2022-11-20T13:58:19;12.80;62.00
55313;DHT22;46892;45.668;11.756;2022-11-20T14:00:25;12.70;62.30
55313;DHT22;46892;45.668;11.756;2022-11-20T14:03:09;12.70;63.10
55313;DHT22;46892;45.668;11.756;2022-11-20T14:05:39;12.70;63.40
55313;DHT22;46892;45.668;11.756;2022-11-20T14:08:12;12.70;63.10
55313;DHT22;46892;45.668;11.756;2022-11-20T14:10:39;12.70;63.30
55313;DHT22;46892;45.668;11.756;2022-11-20T14:13:20;12.70;63.80
55313;DHT22;46892;45.668;11.756;2022-11-20T14:15:46;12.60;63.30
55313;DHT22;46892;45.668;11.756;2022-11-20T14:18:15;12.60;64.10
55313;DHT22;46892;45.668;11.756;2022-11-20T14:20:42;12.50;65.00
55313;DHT22;46892;45.668;11.756;2022-11-20T14:23:10;12.50;64.80
55313;DHT22;46892;45.668;11.756;2022-11-20T14:25:36;12.60;64.20
55313;DHT22;46892;45.668;11.756;2022-11-20T14:28:03;12.50;63.80
55313;DHT22;46892;45.668;11.756;2022-11-20T14:30:42;12.50;64.40
55313;DHT22;46892;45.668;11.756;2022-11-20T14:33:13;12.40;64.70
55313;DHT22;46892;45.668;11.756;2022-11-20T14:35:46;12.30;65.20
55313;DHT22;46892;45.668;11.756;2022-11-20T14:38:14;12.30;65.60
55313;DHT22;46892;45.668;11.756;2022-11-20T14:40:41;12.30;65.90
55313;DHT22;46892;45.668;11.756;2022-11-20T14:43:20;12.30;66.50
55313;DHT22;46892;45.668;11.756;2022-11-20T14:45:59;12.30;66.60
55313;DHT22;46892;45.668;11.756;2022-11-20T14:48:57;12.30;66.60
55313;DHT22;46892;45.668;11.756;2022-11-20T14:51:36;12.20;67.00
55313;DHT22;46892;45.668;11.756;2022-11-20T14:54:20;12.10;67.50
55313;DHT22;46892;45.668;11.756;2022-11-20T14:56:56;12.10;67.80
55313;DHT22;46892;45.668;11.756;2022-11-20T14:59:28;12.10;67.20
55313;DHT22;46892;45.668;11.756;2022-11-20T15:02:03;12.00;67.30
55313;DHT22;46892;45.668;11.756;2022-11-20T15:04:29;12.10;67.00
55313;DHT22;46892;45.668;11.756;2022-11-20T15:06:57;12.00;67.50
55313;DHT22;46892;45.668;11.756;2022-11-20T15:09:23;12.00;67.90
55313;DHT22;46892;45.668;11.756;2022-11-20T15:11:57;12.00;67.80
55313;DHT22;46892;45.668;11.756;2022-11-20T15:14:25;12.00;68.20
55313;DHT22;46892;45.668;11.756;2022-11-20T15:16:52;11.90;68.60
55313;DHT22;46892;45.668;11.756;2022-11-20T15:19:21;11.80;69.40
55313;DHT22;46892;45.668;11.756;2022-11-20T15:21:47;11.80;69.90
55313;DHT22;46892;45.668;11.756;2022-11-20T15:24:12;11.70;70.00
55313;DHT22;46892;45.668;11.756;2022-11-20T15:26:38;11.60;69.70
55313;DHT22;46892;45.668;11.756;2022-11-20T15:29:12;11.60;70.10
55313;DHT22;46892;45.668;11.756;2022-11-20T15:31:39;11.40;70.60
55313;DHT22;46892;45.668;11.756;2022-11-20T15:34:14;11.30;70.90
55313;DHT22;46892;45.668;11.756;2022-11-20T15:36:40;11.20;71.30
55313;DHT22;46892;45.668;11.756;2022-11-20T15:39:07;11.00;71.60
55313;DHT22;46892;45.668;11.756;2022-11-20T15:41:36;10.90;71.80
55313;DHT22;46892;45.668;11.756;2022-11-20T15:44:03;10.90;72.10
55313;DHT22;46892;45.668;11.756;2022-11-20T15:46:32;10.80;72.40
55313;DHT22;46892;45.668;11.756;2022-11-20T15:49:03;10.70;72.60
55313;DHT22;46892;45.668;11.756;2022-11-20T15:51:34;10.50;73.30
55313;DHT22;46892;45.668;11.756;2022-11-20T15:54:00;10.50;73.60
55313;DHT22;46892;45.668;11.756;2022-11-20T15:56:27;10.30;73.90
55313;DHT22;46892;45.668;11.756;2022-11-20T15:58:53;10.30;74.30
55313;DHT22;46892;45.668;11.756;2022-11-20T16:01:21;10.30;74.30
55313;DHT22;46892;45.668;11.756;2022-11-20T16:03:47;10.30;74.10
55313;DHT22;46892;45.668;11.756;2022-11-20T16:06:13;10.30;74.40
55313;DHT22;46892;45.668;11.756;2022-11-20T16:08:41;10.30;74.20
55313;DHT22;46892;45.668;11.756;2022-11-20T16:11:09;10.30;74.40
55313;DHT22;46892;45.668;11.756;2022-11-20T16:13:35;10.30;75.10
55313;DHT22;46892;45.668;11.756;2022-11-20T16:16:25;10.20;74.90
55313;DHT22;46892;45.668;11.756;2022-11-20T16:18:54;10.10;74.90
55313;DHT22;46892;45.668;11.756;2022-11-20T16:21:21;10.00;74.90
55313;DHT22;46892;45.668;11.756;2022-11-20T16:24:10;10.00;75.00
55313;DHT22;46892;45.668;11.756;2022-11-20T16:26:55;10.00;75.40
55313;DHT22;46892;45.668;11.756;2022-11-20T16:29:24;10.00;75.80
55313;DHT22;46892;45.668;11.756;2022-11-20T16:31:50;10.00;75.60
55313;DHT22;46892;45.668;11.756;2022-11-20T16:34:16;9.90;75.60
55313;DHT22;46892;45.668;11.756;2022-11-20T16:36:43;9.90;75.50
55313;DHT22;46892;45.668;11.756;2022-11-20T16:39:10;9.90;75.60
55313;DHT22;46892;45.668;11.756;2022-11-20T16:41:36;9.90;75.60
55313;DHT22;46892;45.668;11.756;2022-11-20T16:44:07;9.90;75.70
55313;DHT22;46892;45.668;11.756;2022-11-20T16:46:33;9.80;75.70
55313;DHT22;46892;45.668;11.756;2022-11-20T16:49:04;9.80;75.40
55313;DHT22;46892;45.668;11.756;2022-11-20T16:51:33;9.80;75.80
55313;DHT22;46892;45.668;11.756;2022-11-20T16:54:04;9.60;75.60
55313;DHT22;46892;45.668;11.756;2022-11-20T16:56:30;9.60;75.70
55313;DHT22;46892;45.668;11.756;2022-11-20T16:58:57;9.60;75.90
55313;DHT22;46892;45.668;11.756;2022-11-20T17:01:24;9.60;76.20
55313;DHT22;46892;45.668;11.756;2022-11-20T17:04:08;9.50;76.40
55313;DHT22;46892;45.668;11.756;2022-11-20T17:06:36;9.50;76.60
55313;DHT22;46892;45.668;11.756;2022-11-20T17:09:03;9.40;76.50
55313;DHT22;46892;45.668;11.756;2022-11-20T17:11:28;9.30;76.60
55313;DHT22;46892;45.668;11.756;2022-11-20T17:13:55;9.30;76.80
55313;DHT22;46892;45.668;11.756;2022-11-20T17:16:22;9.40;77.00
55313;DHT22;46892;45.668;11.756;2022-11-20T17:18:48;9.30;76.70
55313;DHT22;46892;45.668;11.756;2022-11-20T17:21:15;9.30;77.20
55313;DHT22;46892;45.668;11.756;2022-11-20T17:23:42;9.30;77.20
55313;DHT22;46892;45.668;11.756;2022-11-20T17:26:10;9.30;77.30
55313;DHT22;46892;45.668;11.756;2022-11-20T17:28:37;9.30;77.40
55313;DHT22;46892;45.668;11.756;2022-11-20T17:31:10;9.30;77.40
55313;DHT22;46892;45.668;11.756;2022-11-20T17:33:38;9.30;77.50
55313;DHT22;46892;45.668;11.756;2022-11-20T17:36:06;9.30;77.60
55313;DHT22;46892;45.668;11.756;2022-11-20T17:38:32;9.30;77.60
55313;DHT22;46892;45.668;11.756;2022-11-20T17:41:03;9.20;77.40
55313;DHT22;46892;45.668;11.756;2022-11-20T17:43:30;9.10;77.40
55313;DHT22;46892;45.668;11.756;2022-11-20T17:45:56;9.10;77.60
55313;DHT22;46892;45.668;11.756;2022-11-20T17:48:21;9.00;77.60
55313;DHT22;46892;45.668;11.756;2022-11-20T17:50:47;8.80;77.80
55313;DHT22;46892;45.668;11.756;2022-11-20T17:53:13;8.80;77.90
55313;DHT22;46892;45.668;11.756;2022-11-20T17:55:38;8.80;78.00
55313;DHT22;46892;45.668;11.756;2022-11-20T17:58:26;8.70;77.60
55313;DHT22;46892;45.668;11.756;2022-11-20T18:00:52;8.80;78.00
55313;DHT22;46892;45.668;11.756;2022-11-20T18:03:18;8.80;78.00
55313;DHT22;46892;45.668;11.756;2022-11-20T18:05:43;8.80;77.90
55313;DHT22;46892;45.668;11.756;2022-11-20T18:08:09;8.80;77.70
55313;DHT22;46892;45.668;11.756;2022-11-20T18:10:34;8.80;77.30
55313;DHT22;46892;45.668;11.756;2022-11-20T18:13:00;8.70;77.30
55313;DHT22;46892;45.668;11.756;2022-11-20T18:15:26;8.70;77.30
55313;DHT22;46892;45.668;11.756;2022-11-20T18:17:51;8.70;77.40
55313;DHT22;46892;45.668;11.756;2022-11-20T18:20:17;8.60;77.70
55313;DHT22;46892;45.668;11.756;2022-11-20T18:22:43;8.60;77.80
55313;DHT22;46892;45.668;11.756;2022-11-20T18:25:09;8.60;78.00
55313;DHT22;46892;45.668;11.756;2022-11-20T18:27:35;8.70;78.10
55313;DHT22;46892;45.668;11.756;2022-11-20T18:30:01;8.70;78.40
55313;DHT22;46892;45.668;11.756;2022-11-20T18:32:26;8.80;78.10
55313;DHT22;46892;45.668;11.756;2022-11-20T18:34:52;8.80;78.00
55313;DHT22;46892;45.668;11.756;2022-11-20T18:37:18;8.80;77.80
55313;DHT22;46892;45.668;11.756;2022-11-20T18:39:44;8.80;77.90
55313;DHT22;46892;45.668;11.756;2022-11-20T18:42:14;8.70;77.80
55313;DHT22;46892;45.668;11.756;2022-11-20T18:44:59;8.60;78.40
55313;DHT22;46892;45.668;11.756;2022-11-20T18:47:28;8.50;78.90
55313;DHT22;46892;45.668;11.756;2022-11-20T18:49:56;8.50;78.70
55313;DHT22;46892;45.668;11.756;2022-11-20T18:52:29;8.50;78.80
55313;DHT22;46892;45.668;11.756;2022-11-20T18:54:57;8.40;78.30
55313;DHT22;46892;45.668;11.756;2022-11-20T18:57:25;8.50;78.20
55313;DHT22;46892;45.668;11.756;2022-11-20T18:59:52;8.30;78.00